Time;durP1;ratioP1;P1;durP2;ratioP2;P2;SDS_P1;SDS_P2;PMS_P1;PMS_P2;Temp;Humidity;BMP_temperature;BMP_pressure;BME280_temperature;BME280_humidity;BME280_pressure;Samples;Min_cycle;Max_cycle;Signal;HPM_P1;HPM_P2
2023/06/30 00:01:05;;;;;;;8.55;3.00;;;;;;;;;;5090631;28;20036;-76
2023/06/30 00:03:32;;;;;;;9.70;3.40;;;;;;;;;;5074284;28;20043;-76
2023/06/30 00:05:58;;;;;;;6.20;3.05;;;;;;;;;;5090816;28;20050;-76
2023/06/30 00:08:24;;;;;;;8.68;3.28;;;;;;;;;;5091154;28;20114;-77
2023/06/30 00:10:50;;;;;;;8.90;3.13;;;;;;;;;;5090710;28;20051;-77
2023/06/30 00:13:16;;;;;;;8.70;3.13;;;;;;;;;;5074103;28;20048;-76
2023/06/30 00:15:42;;;;;;;9.75;2.97;;;;;;;;;;5090844;28;20036;-76
2023/06/30 00:18:08;;;;;;;8.65;3.13;;;;;;;;;;5090490;28;20044;-77
2023/06/30 00:20:34;;;;;;;8.52;3.22;;;;;;;;;;5090960;28;20035;-77
2023/06/30 00:23:00;;;;;;;16.40;4.05;;;;;;;;;;5090744;28;20553;-77
2023/06/30 00:25:26;;;;;;;9.85;3.40;;;;;;;;;;5073991;28;20043;-76
2023/06/30 00:27:52;;;;;;;8.98;3.60;;;;;;;;;;5090452;28;20119;-76
2023/06/30 00:30:18;;;;;;;6.45;3.70;;;;;;;;;;5091491;28;20489;-76
2023/06/30 00:32:45;;;;;;;8.30;3.25;;;;;;;;;;5090569;28;20044;-76
2023/06/30 00:35:11;;;;;;;8.48;3.30;;;;;;;;;;5073983;28;20493;-76
2023/06/30 00:37:37;;;;;;;12.85;3.70;;;;;;;;;;5091120;28;20483;-76
2023/06/30 00:40:04;;;;;;;6.90;3.63;;;;;;;;;;5090585;28;20040;-76
2023/06/30 00:42:30;;;;;;;8.15;3.42;;;;;;;;;;5090389;28;20036;-76
2023/06/30 00:44:59;;;;;;;9.63;3.42;;;;;;;;;;5090685;28;20378;-76
2023/06/30 00:47:26;;;;;;;10.27;3.17;;;;;;;;;;5090908;28;20385;-76
2023/06/30 00:49:53;;;;;;;9.45;3.53;;;;;;;;;;5090232;28;20048;-76
2023/06/30 00:52:19;;;;;;;6.13;3.10;;;;;;;;;;5090369;28;20051;-76
2023/06/30 00:54:45;;;;;;;6.78;3.25;;;;;;;;;;5090560;28;20043;-77
2023/06/30 00:57:11;;;;;;;8.23;3.53;;;;;;;;;;5091232;28;20047;-78
2023/06/30 00:59:37;;;;;;;9.07;3.30;;;;;;;;;;5090275;28;20040;-76
2023/06/30 01:02:07;;;;;;;6.32;2.90;;;;;;;;;;5090309;28;20069;-76
2023/06/30 01:04:40;;;;;;;8.50;3.17;;;;;;;;;;5090699;28;20454;-76
2023/06/30 01:07:06;;;;;;;8.57;3.10;;;;;;;;;;5073328;28;20109;-76
2023/06/30 01:09:38;;;;;;;7.82;3.05;;;;;;;;;;5078267;28;20066;-76
2023/06/30 01:12:04;;;;;;;6.88;2.60;;;;;;;;;;5089895;28;20075;-76
2023/06/30 01:14:31;;;;;;;7.70;3.72;;;;;;;;;;5090417;28;20505;-76
2023/06/30 01:16:57;;;;;;;5.95;3.20;;;;;;;;;;5090587;28;20042;-76
2023/06/30 01:19:26;;;;;;;7.05;3.05;;;;;;;;;;5094359;28;20040;-76
2023/06/30 01:21:56;;;;;;;6.47;3.17;;;;;;;;;;5095142;28;20051;-78
2023/06/30 01:24:25;;;;;;;7.53;3.38;;;;;;;;;;5091707;28;20040;-78
2023/06/30 01:26:51;;;;;;;9.63;3.10;;;;;;;;;;5093927;28;20053;-78
2023/06/30 01:29:18;;;;;;;11.30;3.10;;;;;;;;;;5093693;28;20393;-78
2023/06/30 01:31:45;;;;;;;10.13;3.25;;;;;;;;;;5077208;28;20503;-76
2023/06/30 01:34:11;;;;;;;7.80;3.17;;;;;;;;;;5093530;28;20492;-76
2023/06/30 01:36:37;;;;;;;6.25;2.78;;;;;;;;;;5093689;28;20044;-78
2023/06/30 01:39:03;;;;;;;7.10;3.38;;;;;;;;;;5093425;28;20101;-75
2023/06/30 01:41:30;;;;;;;7.72;2.50;;;;;;;;;;5093429;28;20043;-75
2023/06/30 01:43:56;;;;;;;5.70;2.55;;;;;;;;;;5093761;28;20043;-75
2023/06/30 01:46:22;;;;;;;6.60;2.72;;;;;;;;;;5093339;28;20051;-75
2023/06/30 01:48:49;;;;;;;9.18;3.40;;;;;;;;;;5072604;28;20389;-75
2023/06/30 01:51:15;;;;;;;9.48;3.30;;;;;;;;;;5083262;28;20105;-76
2023/06/30 01:53:41;;;;;;;9.95;3.40;;;;;;;;;;5092988;28;20508;-75
2023/06/30 01:56:07;;;;;;;9.98;3.22;;;;;;;;;;5093164;28;20048;-75
2023/06/30 01:58:33;;;;;;;9.50;3.30;;;;;;;;;;5093632;28;20366;-75
2023/06/30 02:00:59;;;;;;;8.38;3.05;;;;;;;;;;5073828;28;20508;-75
2023/06/30 02:03:25;;;;;;;8.63;3.20;;;;;;;;;;5090300;28;20460;-75
2023/06/30 02:05:51;;;;;;;6.20;2.92;;;;;;;;;;5091606;28;20055;-75
2023/06/30 02:08:18;;;;;;;7.43;3.40;;;;;;;;;;5092040;28;20130;-75
2023/06/30 02:10:44;;;;;;;7.10;3.03;;;;;;;;;;5092763;28;20040;-75
2023/06/30 02:13:10;;;;;;;6.53;2.70;;;;;;;;;;5093957;28;20505;-75
2023/06/30 02:15:36;;;;;;;6.32;3.20;;;;;;;;;;5093491;28;20090;-75
2023/06/30 02:18:03;;;;;;;10.10;3.70;;;;;;;;;;5093817;28;20042;-75
2023/06/30 02:20:29;;;;;;;7.53;3.25;;;;;;;;;;5093669;28;20036;-75
2023/06/30 02:22:55;;;;;;;9.32;3.15;;;;;;;;;;5092789;28;20040;-78
2023/06/30 02:25:21;;;;;;;6.47;2.67;;;;;;;;;;5092382;28;20076;-79
2023/06/30 02:27:47;;;;;;;5.15;3.00;;;;;;;;;;5092467;28;20059;-79
2023/06/30 02:30:13;;;;;;;8.02;3.17;;;;;;;;;;5092801;28;20071;-75
2023/06/30 02:32:40;;;;;;;8.50;3.45;;;;;;;;;;5076658;28;20466;-75
2023/06/30 02:35:07;;;;;;;7.50;3.30;;;;;;;;;;5078214;28;20115;-75
2023/06/30 02:37:33;;;;;;;9.38;3.33;;;;;;;;;;5092973;28;20475;-75
2023/06/30 02:39:59;;;;;;;7.78;3.28;;;;;;;;;;5093093;28;20078;-75
2023/06/30 02:42:25;;;;;;;7.90;2.80;;;;;;;;;;5094746;28;20501;-79
2023/06/30 02:44:51;;;;;;;7.03;3.45;;;;;;;;;;5093313;28;20071;-75
2023/06/30 02:47:18;;;;;;;9.82;3.42;;;;;;;;;;5092092;28;20087;-75
2023/06/30 02:49:44;;;;;;;12.75;3.58;;;;;;;;;;5092161;28;20048;-75
2023/06/30 02:52:10;;;;;;;8.27;3.60;;;;;;;;;;5075038;28;20047;-79
2023/06/30 02:54:36;;;;;;;9.43;3.63;;;;;;;;;;5092225;28;20055;-79
2023/06/30 02:57:02;;;;;;;5.50;3.65;;;;;;;;;;5092345;28;20477;-79
2023/06/30 02:59:28;;;;;;;6.30;3.90;;;;;;;;;;5092163;28;20117;-75
2023/06/30 03:01:54;;;;;;;12.23;3.50;;;;;;;;;;5091940;28;20036;-75
2023/06/30 03:04:20;;;;;;;8.05;3.05;;;;;;;;;;5091937;28;20493;-75
2023/06/30 03:06:46;;;;;;;9.05;3.53;;;;;;;;;;5091926;28;20126;-79
2023/06/30 03:09:12;;;;;;;9.98;3.47;;;;;;;;;;5076160;28;20048;-75
2023/06/30 03:11:38;;;;;;;7.03;3.47;;;;;;;;;;5091835;28;20044;-75
2023/06/30 03:14:05;;;;;;;7.50;3.45;;;;;;;;;;5091806;28;20521;-74
2023/06/30 03:16:32;;;;;;;6.35;3.30;;;;;;;;;;5091445;28;20044;-75
2023/06/30 03:18:58;;;;;;;10.35;3.55;;;;;;;;;;5091747;28;20039;-79
2023/06/30 03:21:25;;;;;;;5.95;3.53;;;;;;;;;;5074447;28;20061;-79
2023/06/30 03:23:51;;;;;;;8.00;3.05;;;;;;;;;;5091851;28;20498;-79
2023/06/30 03:26:17;;;;;;;7.32;3.67;;;;;;;;;;5091324;28;20126;-75
2023/06/30 03:28:43;;;;;;;10.07;3.90;;;;;;;;;;5075106;28;20105;-74
2023/06/30 03:31:09;;;;;;;10.05;4.20;;;;;;;;;;5091610;28;20531;-74
2023/06/30 03:33:35;;;;;;;8.32;3.20;;;;;;;;;;5091068;28;20040;-74
2023/06/30 03:36:01;;;;;;;9.13;3.97;;;;;;;;;;5074635;28;20051;-74
2023/06/30 03:38:27;;;;;;;7.65;3.80;;;;;;;;;;5091061;28;20047;-75
2023/06/30 03:40:53;;;;;;;8.43;3.20;;;;;;;;;;5074231;28;20043;-74
2023/06/30 03:43:22;;;;;;;7.57;3.30;;;;;;;;;;5074337;28;20119;-74
2023/06/30 03:45:48;;;;;;;9.57;3.60;;;;;;;;;;5091357;28;20149;-74
2023/06/30 03:48:15;;;;;;;6.45;3.33;;;;;;;;;;5091235;28;20047;-79
2023/06/30 03:50:44;;;;;;;5.50;2.83;;;;;;;;;;5091154;28;20071;-79
2023/06/30 03:53:10;;;;;;;6.47;3.50;;;;;;;;;;5091088;28;20052;-80
2023/06/30 03:55:36;;;;;;;9.15;3.67;;;;;;;;;;5057640;28;20439;-80
2023/06/30 03:58:03;;;;;;;9.50;3.60;;;;;;;;;;5091244;28;20040;-80
2023/06/30 04:00:31;;;;;;;5.90;3.80;;;;;;;;;;5090551;28;20040;-80
2023/06/30 04:02:57;;;;;;;8.93;3.60;;;;;;;;;;5088435;28;20110;-80
2023/06/30 04:05:23;;;;;;;6.30;2.72;;;;;;;;;;5090838;28;20035;-80
2023/06/30 04:07:49;;;;;;;7.97;3.70;;;;;;;;;;5091089;28;20489;-80
2023/06/30 04:10:15;;;;;;;8.35;3.30;;;;;;;;;;5091910;28;20039;-80
2023/06/30 04:12:43;;;;;;;8.32;3.60;;;;;;;;;;5090862;28;20539;-80
2023/06/30 04:15:10;;;;;;;8.38;3.40;;;;;;;;;;5092138;28;20105;-80
2023/06/30 04:17:37;;;;;;;10.25;3.30;;;;;;;;;;5090462;28;20082;-81
2023/06/30 04:20:06;;;;;;;5.35;2.60;;;;;;;;;;5090881;28;20048;-81
2023/06/30 04:22:33;;;;;;;5.20;2.42;;;;;;;;;;5089194;28;20552;-80
2023/06/30 04:24:59;;;;;;;5.43;2.78;;;;;;;;;;5073999;28;20046;-80
2023/06/30 04:27:25;;;;;;;5.53;2.20;;;;;;;;;;5090550;28;20815;-80
2023/06/30 04:29:52;;;;;;;7.53;2.47;;;;;;;;;;5090776;28;20040;-80
2023/06/30 04:32:18;;;;;;;6.57;2.65;;;;;;;;;;5090534;28;20048;-80
2023/06/30 04:34:44;;;;;;;5.40;2.40;;;;;;;;;;5090315;28;20450;-80
2023/06/30 04:37:11;;;;;;;6.20;2.50;;;;;;;;;;5074240;28;20043;-80
2023/06/30 04:39:37;;;;;;;6.13;2.40;;;;;;;;;;5091512;28;20036;-80
2023/06/30 04:42:03;;;;;;;5.25;2.45;;;;;;;;;;5073918;28;20067;-80
2023/06/30 04:44:30;;;;;;;7.68;2.60;;;;;;;;;;5090610;28;20531;-80
2023/06/30 04:46:56;;;;;;;11.60;3.22;;;;;;;;;;5091104;28;20131;-80
2023/06/30 04:49:24;;;;;;;7.97;2.85;;;;;;;;;;5090913;28;20051;-80
2023/06/30 04:51:50;;;;;;;7.03;2.72;;;;;;;;;;5091377;28;20044;-80
2023/06/30 04:54:19;;;;;;;9.48;3.10;;;;;;;;;;5094309;28;20101;-80
2023/06/30 04:56:45;;;;;;;9.20;2.40;;;;;;;;;;5094083;28;20044;-80
2023/06/30 04:59:11;;;;;;;8.75;2.50;;;;;;;;;;5094477;28;20089;-79
2023/06/30 05:01:37;;;;;;;8.32;2.40;;;;;;;;;;5076977;28;20036;-80
2023/06/30 05:04:03;;;;;;;10.43;3.22;;;;;;;;;;5094780;28;20083;-80
2023/06/30 05:06:29;;;;;;;6.00;2.10;;;;;;;;;;5093990;28;20036;-80
2023/06/30 05:08:55;;;;;;;7.43;2.72;;;;;;;;;;5094616;28;20069;-76
2023/06/30 05:11:21;;;;;;;9.00;2.60;;;;;;;;;;5094256;28;20067;-76
2023/06/30 05:13:47;;;;;;;7.57;2.22;;;;;;;;;;5094768;28;20516;-76
2023/06/30 05:16:14;;;;;;;7.15;2.15;;;;;;;;;;5077609;28;20460;-76
2023/06/30 05:18:40;;;;;;;4.78;1.60;;;;;;;;;;5093748;28;20385;-76
2023/06/30 05:21:08;;;;;;;4.30;1.70;;;;;;;;;;5094613;28;20508;-76
2023/06/30 05:23:34;;;;;;;7.50;1.85;;;;;;;;;;5077060;28;20044;-77
2023/06/30 05:26:00;;;;;;;8.80;1.90;;;;;;;;;;5077128;28;20043;-76
2023/06/30 05:28:27;;;;;;;6.93;2.03;;;;;;;;;;5077101;28;20047;-76
2023/06/30 05:30:53;;;;;;;7.53;2.00;;;;;;;;;;5093509;28;20050;-77
2023/06/30 05:33:19;;;;;;;5.55;1.65;;;;;;;;;;5093715;28;20040;-77
2023/06/30 05:35:45;;;;;;;6.13;1.70;;;;;;;;;;5093561;28;20040;-77
2023/06/30 05:38:11;;;;;;;6.88;1.80;;;;;;;;;;5093616;28;20063;-78
2023/06/30 05:40:37;;;;;;;6.18;1.73;;;;;;;;;;5076520;28;20036;-78
2023/06/30 05:43:03;;;;;;;7.13;1.80;;;;;;;;;;5093427;28;20036;-77
2023/06/30 05:45:29;;;;;;;7.97;1.80;;;;;;;;;;5093698;28;20124;-78
2023/06/30 05:47:56;;;;;;;4.75;1.30;;;;;;;;;;5094624;28;20044;-77
2023/06/30 05:50:23;;;;;;;6.45;1.60;;;;;;;;;;5094928;28;20081;-77
2023/06/30 05:52:50;;;;;;;5.95;1.80;;;;;;;;;;5075953;28;20055;-77
2023/06/30 05:55:16;;;;;;;7.20;1.40;;;;;;;;;;5093666;28;20040;-77
2023/06/30 05:57:42;;;;;;;5.28;1.30;;;;;;;;;;5092970;28;20044;-77
2023/06/30 06:00:08;;;;;;;5.85;1.40;;;;;;;;;;5093581;28;20079;-76
2023/06/30 06:02:34;;;;;;;10.90;2.08;;;;;;;;;;5076095;28;20040;-76
2023/06/30 06:05:00;;;;;;;5.82;1.52;;;;;;;;;;5077154;28;20048;-77
2023/06/30 06:07:26;;;;;;;4.80;1.77;;;;;;;;;;5094357;28;20050;-77
2023/06/30 06:09:53;;;;;;;6.47;1.45;;;;;;;;;;5092720;28;20051;-75
2023/06/30 06:12:19;;;;;;;6.00;1.50;;;;;;;;;;5093314;28;20572;-76
2023/06/30 06:14:45;;;;;;;7.13;1.77;;;;;;;;;;5075954;28;20032;-76
2023/06/30 06:17:11;;;;;;;4.43;1.33;;;;;;;;;;5094416;28;20044;-75
2023/06/30 06:19:37;;;;;;;4.65;1.10;;;;;;;;;;5092711;28;20032;-74
2023/06/30 06:22:03;;;;;;;4.85;1.50;;;;;;;;;;5076151;28;20051;-76
2023/06/30 06:24:29;;;;;;;6.15;1.27;;;;;;;;;;5092991;28;20046;-77
2023/06/30 06:26:55;;;;;;;6.20;1.27;;;;;;;;;;5075649;28;20135;-73
2023/06/30 06:29:22;;;;;;;5.03;1.33;;;;;;;;;;5092709;28;20047;-75
2023/06/30 06:31:52;;;;;;;5.38;1.20;;;;;;;;;;5092515;28;20052;-75
2023/06/30 06:34:18;;;;;;;5.00;1.20;;;;;;;;;;5075687;28;20039;-75
2023/06/30 06:36:45;;;;;;;6.53;1.50;;;;;;;;;;5075602;28;20055;-75
2023/06/30 06:39:11;;;;;;;6.03;1.45;;;;;;;;;;5092563;28;20173;-75
2023/06/30 06:41:37;;;;;;;5.97;1.52;;;;;;;;;;5092677;28;20067;-75
2023/06/30 06:44:04;;;;;;;6.18;1.10;;;;;;;;;;5092293;28;20048;-75
2023/06/30 06:46:30;;;;;;;3.83;1.02;;;;;;;;;;5092387;28;20044;-75
2023/06/30 06:48:56;;;;;;;5.55;1.20;;;;;;;;;;5092078;28;20044;-75
2023/06/30 06:51:23;;;;;;;6.30;1.35;;;;;;;;;;5092499;28;20048;-75
2023/06/30 06:53:49;;;;;;;6.60;1.38;;;;;;;;;;5078705;28;20047;-74
2023/06/30 06:56:15;;;;;;;5.22;1.20;;;;;;;;;;5075419;28;20044;-75
2023/06/30 06:58:41;;;;;;;5.53;1.17;;;;;;;;;;5092055;28;20036;-75
2023/06/30 07:01:07;;;;;;;5.32;1.10;;;;;;;;;;5092188;28;20036;-75
2023/06/30 07:03:34;;;;;;;8.13;1.50;;;;;;;;;;5093068;28;20048;-75
2023/06/30 07:06:00;;;;;;;5.03;1.10;;;;;;;;;;5075109;28;20040;-75
2023/06/30 07:08:26;;;;;;;5.22;1.23;;;;;;;;;;5091813;28;20055;-75
2023/06/30 07:10:52;;;;;;;5.05;1.20;;;;;;;;;;5091875;28;20036;-75
2023/06/30 07:13:19;;;;;;;1.98;1.00;;;;;;;;;;5091907;28;20093;-75
2023/06/30 07:15:47;;;;;;;6.40;1.20;;;;;;;;;;5092146;28;20043;-75
2023/06/30 07:18:17;;;;;;;3.83;1.20;;;;;;;;;;5092364;28;20052;-75
2023/06/30 07:20:43;;;;;;;4.80;1.27;;;;;;;;;;5092008;28;20036;-75
2023/06/30 07:23:09;;;;;;;6.90;1.60;;;;;;;;;;5075187;28;20102;-76
2023/06/30 07:25:35;;;;;;;7.40;1.25;;;;;;;;;;5092692;28;20119;-76
2023/06/30 07:28:03;;;;;;;7.20;1.10;;;;;;;;;;5091451;28;20043;-75
2023/06/30 07:30:29;;;;;;;4.65;1.10;;;;;;;;;;5091929;28;20040;-75
2023/06/30 07:32:55;;;;;;;5.53;1.20;;;;;;;;;;5087391;28;20381;-75
2023/06/30 07:35:22;;;;;;;9.93;1.40;;;;;;;;;;5091717;28;20412;-75
2023/06/30 07:37:49;;;;;;;3.55;1.10;;;;;;;;;;5074422;28;20048;-75
2023/06/30 07:40:15;;;;;;;4.60;1.20;;;;;;;;;;5091689;28;20389;-75
2023/06/30 07:42:42;;;;;;;7.22;1.10;;;;;;;;;;5091440;28;20044;-74
2023/06/30 07:45:14;;;;;;;4.35;1.00;;;;;;;;;;5092175;28;20047;-74
2023/06/30 07:47:41;;;;;;;5.32;1.00;;;;;;;;;;5091399;28;20048;-75
2023/06/30 07:50:10;;;;;;;5.57;1.00;;;;;;;;;;5092039;28;20043;-73
2023/06/30 07:52:47;;;;;;;8.55;1.02;;;;;;;;;;5091148;28;20040;-75
2023/06/30 07:55:16;;;;;;;5.82;1.33;;;;;;;;;;5092345;28;20036;-75
2023/06/30 07:57:42;;;;;;;4.45;1.23;;;;;;;;;;5074409;28;20032;-74
2023/06/30 08:00:10;;;;;;;3.90;1.13;;;;;;;;;;5090918;28;20401;-75
2023/06/30 08:02:37;;;;;;;4.35;1.00;;;;;;;;;;5074931;28;20043;-74
2023/06/30 08:05:03;;;;;;;4.25;1.13;;;;;;;;;;5090544;28;20052;-75
2023/06/30 08:07:29;;;;;;;3.47;1.05;;;;;;;;;;5091416;28;20120;-75
2023/06/30 08:09:55;;;;;;;9.40;1.25;;;;;;;;;;5090639;28;20093;-76
2023/06/30 08:12:22;;;;;;;4.28;1.10;;;;;;;;;;5091223;28;20546;-75
2023/06/30 08:14:48;;;;;;;3.72;1.13;;;;;;;;;;5090802;28;20036;-76
2023/06/30 08:17:17;;;;;;;2.65;0.88;;;;;;;;;;5090740;28;20116;-74
2023/06/30 08:19:43;;;;;;;5.32;1.02;;;;;;;;;;5091183;28;20390;-75
2023/06/30 08:22:13;;;;;;;8.13;1.10;;;;;;;;;;5073944;28;20485;-75
2023/06/30 08:24:39;;;;;;;4.90;1.02;;;;;;;;;;5090817;28;20048;-75
2023/06/30 08:27:06;;;;;;;3.08;0.90;;;;;;;;;;5093555;28;20043;-75
2023/06/30 08:29:32;;;;;;;6.60;1.40;;;;;;;;;;5078732;28;20040;-74
2023/06/30 08:31:58;;;;;;;5.90;1.67;;;;;;;;;;5096046;28;20044;-74
2023/06/30 08:34:25;;;;;;;4.13;1.33;;;;;;;;;;5097635;28;20048;-74
2023/06/30 08:36:55;;;;;;;20.95;1.55;;;;;;;;;;5095346;28;20477;-73
2023/06/30 08:39:21;;;;;;;3.92;1.05;;;;;;;;;;5094938;28;20040;-74
2023/06/30 08:41:53;;;;;;;5.45;1.20;;;;;;;;;;5095849;28;20036;-74
2023/06/30 08:44:23;;;;;;;8.35;1.40;;;;;;;;;;5094524;28;20404;-74
2023/06/30 08:46:51;;;;;;;4.13;0.90;;;;;;;;;;5094583;28;20036;-73
2023/06/30 08:49:18;;;;;;;5.85;1.08;;;;;;;;;;5094755;28;20397;-74
2023/06/30 08:51:44;;;;;;;7.38;1.10;;;;;;;;;;5077632;28;20043;-75
2023/06/30 08:54:10;;;;;;;5.75;1.20;;;;;;;;;;5077342;28;20428;-75
2023/06/30 08:56:42;;;;;;;4.78;1.48;;;;;;;;;;5094325;28;20047;-73
2023/06/30 08:59:08;;;;;;;9.65;1.23;;;;;;;;;;5094575;28;20396;-73
2023/06/30 09:01:34;;;;;;;7.43;1.17;;;;;;;;;;5095964;28;20032;-75
2023/06/30 09:04:01;;;;;;;5.85;1.10;;;;;;;;;;5079898;28;20123;-75
2023/06/30 09:06:27;;;;;;;4.75;1.33;;;;;;;;;;5077619;28;20106;-75
2023/06/30 09:08:59;;;;;;;2.75;1.20;;;;;;;;;;5095567;28;20040;-75
2023/06/30 09:11:28;;;;;;;5.03;1.15;;;;;;;;;;5095396;28;20040;-75
2023/06/30 09:14:00;;;;;;;4.25;1.17;;;;;;;;;;5094412;28;20433;-75
2023/06/30 09:16:26;;;;;;;6.15;1.38;;;;;;;;;;5077596;28;20392;-75
2023/06/30 09:18:53;;;;;;;4.03;1.08;;;;;;;;;;5094335;28;20485;-75
2023/06/30 09:21:19;;;;;;;5.45;1.35;;;;;;;;;;5095121;28;20048;-76
2023/06/30 09:23:45;;;;;;;5.78;1.25;;;;;;;;;;5094306;28;20392;-74
2023/06/30 09:26:14;;;;;;;5.15;1.70;;;;;;;;;;5093520;28;20075;-75
2023/06/30 09:28:44;;;;;;;8.52;1.40;;;;;;;;;;5095440;28;20048;-75
2023/06/30 09:31:10;;;;;;;10.60;1.30;;;;;;;;;;5093597;28;20545;-74
2023/06/30 09:33:37;;;;;;;4.22;1.20;;;;;;;;;;5093926;28;20071;-75
2023/06/30 09:36:03;;;;;;;3.00;1.25;;;;;;;;;;5093429;28;20129;-75
2023/06/30 09:38:30;;;;;;;5.28;1.60;;;;;;;;;;5075535;28;20044;-75
2023/06/30 09:40:56;;;;;;;3.35;1.35;;;;;;;;;;5085481;28;20036;-76
2023/06/30 09:43:24;;;;;;;7.20;1.25;;;;;;;;;;5076382;28;20036;-75
2023/06/30 09:45:57;;;;;;;4.78;1.42;;;;;;;;;;5093525;28;20040;-75
2023/06/30 09:48:35;;;;;;;4.72;1.60;;;;;;;;;;5093450;28;20288;-76
2023/06/30 09:51:01;;;;;;;4.57;1.25;;;;;;;;;;5093525;28;20048;-75
2023/06/30 09:53:35;;;;;;;5.45;1.52;;;;;;;;;;5092932;28;20059;-75
2023/06/30 09:56:01;;;;;;;5.37;1.50;;;;;;;;;;5093691;28;20071;-74
2023/06/30 09:58:27;;;;;;;4.72;1.33;;;;;;;;;;5094364;28;20078;-75
2023/06/30 10:00:53;;;;;;;6.47;1.30;;;;;;;;;;5093400;28;20173;-74
2023/06/30 10:03:20;;;;;;;7.05;1.40;;;;;;;;;;5092876;28;20119;-75
2023/06/30 10:05:48;;;;;;;5.22;1.15;;;;;;;;;;5093085;28;20050;-75
2023/06/30 10:08:14;;;;;;;5.28;1.23;;;;;;;;;;5093178;28;20047;-74
2023/06/30 10:10:44;;;;;;;6.68;1.33;;;;;;;;;;5092876;28;20043;-74
2023/06/30 10:13:15;;;;;;;5.30;1.20;;;;;;;;;;5094068;28;20044;-74
2023/06/30 10:15:41;;;;;;;3.22;1.38;;;;;;;;;;5092830;28;20110;-74
2023/06/30 10:18:12;;;;;;;3.47;1.30;;;;;;;;;;5093068;28;20485;-75
2023/06/30 10:20:39;;;;;;;4.60;1.38;;;;;;;;;;5076069;28;20096;-75
2023/06/30 10:23:05;;;;;;;5.05;1.30;;;;;;;;;;5093245;28;20040;-74
2023/06/30 10:25:33;;;;;;;6.45;1.95;;;;;;;;;;5092588;28;20044;-74
2023/06/30 10:27:59;;;;;;;4.63;1.23;;;;;;;;;;5076264;28;20404;-74
2023/06/30 10:30:26;;;;;;;4.60;1.25;;;;;;;;;;5092528;28;20066;-75
2023/06/30 10:32:52;;;;;;;8.48;1.20;;;;;;;;;;5092362;28;20118;-74
2023/06/30 10:35:18;;;;;;;3.88;1.30;;;;;;;;;;5092255;28;20121;-73
2023/06/30 10:37:45;;;;;;;5.75;1.40;;;;;;;;;;5092852;28;20481;-75
2023/06/30 10:40:30;;;;;;;4.85;1.60;;;;;;;;;;5092218;28;20040;-75
2023/06/30 10:42:57;;;;;;;4.35;1.50;;;;;;;;;;5093771;28;20097;-72
2023/06/30 10:45:30;;;;;;;4.90;1.50;;;;;;;;;;5092068;28;20039;-73
2023/06/30 10:47:56;;;;;;;4.00;1.20;;;;;;;;;;5092454;28;20129;-72
2023/06/30 10:50:23;;;;;;;4.25;1.30;;;;;;;;;;5091039;28;20139;-74
2023/06/30 10:52:53;;;;;;;5.55;1.58;;;;;;;;;;5092345;28;20062;-73
2023/06/30 10:55:20;;;;;;;2.97;1.27;;;;;;;;;;5093196;28;20450;-72
2023/06/30 10:57:51;;;;;;;4.18;1.10;;;;;;;;;;5093372;28;20374;-72
2023/06/30 11:00:17;;;;;;;4.50;1.33;;;;;;;;;;5092259;28;20449;-73
2023/06/30 11:02:50;;;;;;;3.03;1.20;;;;;;;;;;5093566;28;20063;-73
2023/06/30 11:05:23;;;;;;;5.18;1.15;;;;;;;;;;5092076;28;20438;-73
2023/06/30 11:08:02;;;;;;;5.20;1.40;;;;;;;;;;5093278;28;20043;-73
2023/06/30 11:10:29;;;;;;;3.50;1.10;;;;;;;;;;5091791;28;20480;-75
2023/06/30 11:12:58;;;;;;;4.45;1.38;;;;;;;;;;5093576;28;20109;-75
2023/06/30 11:15:25;;;;;;;3.35;1.10;;;;;;;;;;5091419;28;20036;-74
2023/06/30 11:17:51;;;;;;;3.63;1.10;;;;;;;;;;5092007;28;20089;-75
2023/06/30 11:20:17;;;;;;;3.90;1.10;;;;;;;;;;5091545;28;20088;-75
2023/06/30 11:22:55;;;;;;;6.68;1.42;;;;;;;;;;5077690;28;20040;-73
2023/06/30 11:25:21;;;;;;;2.85;1.00;;;;;;;;;;5091879;28;20070;-75
2023/06/30 11:27:47;;;;;;;4.07;1.30;;;;;;;;;;5092888;28;20485;-75
2023/06/30 11:30:18;;;;;;;6.38;1.25;;;;;;;;;;5093195;28;20039;-74
2023/06/30 11:32:46;;;;;;;5.75;1.20;;;;;;;;;;5091628;28;20052;-73
2023/06/30 11:35:12;;;;;;;3.72;1.10;;;;;;;;;;5091613;28;20036;-74
2023/06/30 11:37:38;;;;;;;10.43;1.80;;;;;;;;;;5074162;28;20067;-74
2023/06/30 11:40:08;;;;;;;5.32;1.30;;;;;;;;;;5074847;28;20043;-74
2023/06/30 11:42:38;;;;;;;4.75;1.58;;;;;;;;;;5091092;28;20081;-75
2023/06/30 11:45:05;;;;;;;4.78;1.50;;;;;;;;;;5091502;28;20042;-74
2023/06/30 11:47:31;;;;;;;21.38;2.25;;;;;;;;;;5092230;28;20040;-74
2023/06/30 11:49:57;;;;;;;4.70;1.52;;;;;;;;;;5092518;28;20047;-73
2023/06/30 11:52:23;;;;;;;7.07;1.50;;;;;;;;;;5092039;28;20500;-73
2023/06/30 11:54:49;;;;;;;4.03;1.30;;;;;;;;;;5074676;28;20532;-74
2023/06/30 11:57:15;;;;;;;6.35;1.63;;;;;;;;;;5074474;28;20043;-73
2023/06/30 11:59:42;;;;;;;3.70;1.50;;;;;;;;;;5074397;28;20544;-74
2023/06/30 12:02:12;;;;;;;4.00;1.70;;;;;;;;;;5074237;28;20047;-75
2023/06/30 12:04:38;;;;;;;4.55;2.00;;;;;;;;;;5091969;28;20048;-73
2023/06/30 12:07:05;;;;;;;5.40;1.63;;;;;;;;;;5091267;28;20504;-74
2023/06/30 12:09:34;;;;;;;4.35;1.50;;;;;;;;;;5074278;28;20048;-73
2023/06/30 12:12:01;;;;;;;5.43;1.80;;;;;;;;;;5091211;28;20469;-73
2023/06/30 12:14:28;;;;;;;4.22;1.95;;;;;;;;;;5090484;28;20054;-74
2023/06/30 12:16:54;;;;;;;6.40;1.80;;;;;;;;;;5091144;28;20141;-74
2023/06/30 12:19:27;;;;;;;6.45;1.80;;;;;;;;;;5090900;28;20044;-74
2023/06/30 12:21:53;;;;;;;4.63;1.60;;;;;;;;;;5092293;28;20043;-74
2023/06/30 12:24:21;;;;;;;8.50;2.20;;;;;;;;;;5090767;28;20042;-73
2023/06/30 12:26:48;;;;;;;5.35;1.90;;;;;;;;;;5090709;28;20050;-74
2023/06/30 12:29:16;;;;;;;5.38;1.98;;;;;;;;;;5090723;28;20040;-75
2023/06/30 12:31:42;;;;;;;3.45;1.83;;;;;;;;;;5090664;28;20043;-75
2023/06/30 12:34:08;;;;;;;7.18;2.10;;;;;;;;;;5074072;28;20512;-75
2023/06/30 12:36:34;;;;;;;8.95;2.30;;;;;;;;;;5090399;28;20040;-75
2023/06/30 12:39:00;;;;;;;3.58;1.63;;;;;;;;;;5090752;28;20104;-74
2023/06/30 12:41:26;;;;;;;4.03;1.70;;;;;;;;;;5073659;28;20507;-74
2023/06/30 12:43:53;;;;;;;4.63;1.80;;;;;;;;;;5090728;28;20040;-74
2023/06/30 12:46:19;;;;;;;3.55;1.85;;;;;;;;;;5090729;28;20052;-75
2023/06/30 12:48:46;;;;;;;3.67;1.85;;;;;;;;;;5090168;28;20036;-74
2023/06/30 12:51:12;;;;;;;4.47;1.40;;;;;;;;;;5090830;28;20046;-76
2023/06/30 12:53:38;;;;;;;5.72;1.40;;;;;;;;;;5073132;28;20048;-73
2023/06/30 12:56:04;;;;;;;3.22;1.58;;;;;;;;;;5074173;28;20488;-74
2023/06/30 12:58:30;;;;;;;4.40;1.50;;;;;;;;;;5073247;28;20119;-74
2023/06/30 13:01:03;;;;;;;4.47;1.60;;;;;;;;;;5090663;28;20040;-74
2023/06/30 13:03:32;;;;;;;4.32;1.50;;;;;;;;;;5090750;28;20061;-74
2023/06/30 13:05:58;;;;;;;4.90;1.60;;;;;;;;;;5090550;28;20048;-73
2023/06/30 13:08:24;;;;;;;3.53;1.40;;;;;;;;;;5090255;28;20080;-72
2023/06/30 13:10:50;;;;;;;5.55;1.67;;;;;;;;;;5090094;28;20048;-73
2023/06/30 13:13:17;;;;;;;3.00;1.35;;;;;;;;;;5091646;28;20051;-74
2023/06/30 13:15:43;;;;;;;3.70;1.70;;;;;;;;;;5093784;28;20043;-74
2023/06/30 13:18:10;;;;;;;3.10;1.60;;;;;;;;;;5095779;28;20437;-74
2023/06/30 13:20:36;;;;;;;5.20;1.50;;;;;;;;;;5093626;28;20090;-74
2023/06/30 13:23:02;;;;;;;4.05;1.70;;;;;;;;;;5094133;28;20048;-74
2023/06/30 13:25:29;;;;;;;4.70;1.65;;;;;;;;;;5094025;28;20169;-71
2023/06/30 13:27:55;;;;;;;3.10;1.60;;;;;;;;;;5094935;28;20040;-73
2023/06/30 13:30:21;;;;;;;5.78;1.83;;;;;;;;;;5094165;28;20105;-73
2023/06/30 13:32:48;;;;;;;4.22;1.90;;;;;;;;;;5094813;28;20096;-74
2023/06/30 13:35:14;;;;;;;3.45;1.60;;;;;;;;;;5077004;28;20458;-74
2023/06/30 13:37:40;;;;;;;3.30;1.30;;;;;;;;;;5094814;28;20119;-74
2023/06/30 13:40:07;;;;;;;4.72;1.60;;;;;;;;;;5076819;28;20040;-74
2023/06/30 13:42:34;;;;;;;7.57;1.73;;;;;;;;;;5077359;28;20522;-75
2023/06/30 13:45:00;;;;;;;4.22;1.42;;;;;;;;;;5093483;28;20070;-74
2023/06/30 13:47:26;;;;;;;6.93;1.73;;;;;;;;;;5093760;28;20078;-75
2023/06/30 13:49:52;;;;;;;5.78;2.13;;;;;;;;;;5076264;28;20089;-73
2023/06/30 13:52:18;;;;;;;4.82;1.80;;;;;;;;;;5093771;28;20040;-73
2023/06/30 13:54:44;;;;;;;5.03;1.60;;;;;;;;;;5092962;28;20443;-74
2023/06/30 13:57:11;;;;;;;9.05;1.77;;;;;;;;;;5093523;28;20381;-75
2023/06/30 13:59:37;;;;;;;3.75;1.63;;;;;;;;;;5093237;28;20477;-74
2023/06/30 14:02:03;;;;;;;6.10;1.98;;;;;;;;;;5076549;28;20175;-73
2023/06/30 14:04:29;;;;;;;6.07;2.45;;;;;;;;;;5094730;28;20048;-75
2023/06/30 14:06:55;;;;;;;6.68;2.00;;;;;;;;;;5093066;28;20503;-74
2023/06/30 14:09:21;;;;;;;5.32;1.98;;;;;;;;;;5093293;28;20039;-74
2023/06/30 14:11:47;;;;;;;4.50;2.10;;;;;;;;;;5092826;28;20072;-75
2023/06/30 14:14:13;;;;;;;3.67;1.90;;;;;;;;;;5072832;28;20047;-75
2023/06/30 14:16:40;;;;;;;4.82;1.88;;;;;;;;;;5068076;28;20040;-74
2023/06/30 14:19:06;;;;;;;4.47;1.88;;;;;;;;;;5092728;28;20043;-73
2023/06/30 14:21:32;;;;;;;7.78;2.38;;;;;;;;;;5076210;28;20040;-74
2023/06/30 14:23:59;;;;;;;8.60;2.17;;;;;;;;;;5092599;28;20442;-72
2023/06/30 14:26:25;;;;;;;4.85;2.40;;;;;;;;;;5092837;28;20047;-73
2023/06/30 14:28:55;;;;;;;4.80;2.28;;;;;;;;;;5092564;28;20567;-73
2023/06/30 14:31:21;;;;;;;4.65;2.30;;;;;;;;;;5076079;28;20036;-74
2023/06/30 14:33:47;;;;;;;5.00;2.33;;;;;;;;;;5093832;28;20401;-74
2023/06/30 14:36:13;;;;;;;5.63;2.20;;;;;;;;;;5094360;28;20036;-74
2023/06/30 14:38:39;;;;;;;7.07;2.13;;;;;;;;;;5094482;28;20456;-74
2023/06/30 14:41:05;;;;;;;8.23;2.22;;;;;;;;;;5075255;28;20050;-73